Time;durP1;ratioP1;P1;durP2;ratioP2;P2;SDS_P1;SDS_P2;PMS_P1;PMS_P2;Temp;Humidity;BMP_temperature;BMP_pressure;BME280_temperature;BME280_humidity;BME280_pressure;Samples;Min_cycle;Max_cycle;Signal;HPM_P1;HPM_P2
2023/01/07 00:01:14;;;;;;;26.40;13.30;;;0.80;99.90;;;;;;4229883;28;20321;-63
2023/01/07 00:03:16;;;;;;;31.23;15.90;;;0.80;99.90;;;;;;4228608;28;20302;-63
2023/01/07 00:05:17;;;;;;;31.23;15.43;;;0.90;99.90;;;;;;4229918;28;20279;-62
2023/01/07 00:07:18;;;;;;;29.77;15.33;;;0.90;99.90;;;;;;4228351;28;20333;-67
2023/01/07 00:09:19;;;;;;;29.33;14.67;;;0.80;99.90;;;;;;4228936;28;20344;-63
2023/01/07 00:11:26;;;;;;;27.03;15.80;;;0.80;99.90;;;;;;4228970;28;20314;-62
2023/01/07 00:13:27;;;;;;;28.27;14.23;;;0.80;99.90;;;;;;4229376;28;20264;-67
2023/01/07 00:15:28;;;;;;;26.83;14.07;;;0.90;99.90;;;;;;4228819;28;20667;-62
2023/01/07 00:17:29;;;;;;;25.43;12.87;;;0.80;99.90;;;;;;4228387;28;20632;-63
2023/01/07 00:19:30;;;;;;;27.63;13.27;;;0.80;99.90;;;;;;4229455;28;20260;-63
2023/01/07 00:21:32;;;;;;;24.93;11.97;;;0.90;99.90;;;;;;4228628;28;20646;-62
2023/01/07 00:23:34;;;;;;;22.57;10.97;;;0.90;99.90;;;;;;4229750;28;20271;-63
2023/01/07 00:25:36;;;;;;;25.83;10.77;;;0.90;99.90;;;;;;4228396;28;20728;-63
2023/01/07 00:27:37;;;;;;;18.13;9.67;;;1.00;99.90;;;;;;4229612;28;20248;-65
2023/01/07 00:29:38;;;;;;;20.37;10.43;;;1.00;99.90;;;;;;4228253;28;20578;-63
2023/01/07 00:31:39;;;;;;;25.70;11.70;;;1.10;99.90;;;;;;4229304;28;20305;-63
2023/01/07 00:34:05;;;;;;;19.07;10.43;;;1.10;99.90;;;;;;4228324;28;20313;-67
2023/01/07 00:36:08;;;;;;;17.53;9.07;;;1.10;99.90;;;;;;4229592;28;20671;-64
2023/01/07 00:38:10;;;;;;;21.47;10.50;;;1.10;99.90;;;;;;4228229;28;20352;-64
2023/01/07 00:40:11;;;;;;;20.00;9.97;;;1.20;99.90;;;;;;4228870;28;20325;-64
2023/01/07 00:44:33;;;;;;;20.13;10.17;;;1.10;99.90;;;;;;4229372;28;20280;-63
2023/01/07 00:46:34;;;;;;;32.57;15.10;;;1.10;99.90;;;;;;4228488;28;20293;-63
2023/01/07 00:48:35;;;;;;;39.70;16.37;;;1.00;99.90;;;;;;4229347;28;20265;-62
2023/01/07 00:50:37;;;;;;;34.43;16.30;;;1.00;99.90;;;;;;4228143;28;20264;-62
2023/01/07 00:52:39;;;;;;;36.23;17.17;;;0.90;99.90;;;;;;4228810;28;20345;-66
2023/01/07 00:54:40;;;;;;;35.20;15.70;;;0.80;99.90;;;;;;4226082;28;20306;-62
2023/01/07 00:56:41;;;;;;;30.30;14.73;;;0.80;99.90;;;;;;4227933;28;20284;-67
2023/01/07 00:58:42;;;;;;;32.00;15.90;;;0.80;99.90;;;;;;4228187;28;20260;-64
2023/01/07 01:00:43;;;;;;;26.90;14.90;;;0.70;99.90;;;;;;4227562;28;20309;-65
2023/01/07 01:02:46;;;;;;;33.00;15.80;;;0.70;99.90;;;;;;4228421;28;20280;-62
2023/01/07 01:04:47;;;;;;;31.00;15.93;;;0.70;99.90;;;;;;4227796;28;20276;-64
2023/01/07 01:06:48;;;;;;;30.73;14.77;;;0.70;99.90;;;;;;4228466;28;20331;-64
2023/01/07 01:08:49;;;;;;;34.50;16.30;;;0.70;99.90;;;;;;4227618;28;20686;-63
2023/01/07 01:10:50;;;;;;;33.63;15.27;;;0.80;99.90;;;;;;4228849;28;20252;-63
2023/01/07 01:12:51;;;;;;;28.70;15.07;;;0.80;99.90;;;;;;4227793;28;20691;-64
2023/01/07 01:14:53;;;;;;;30.37;15.77;;;0.90;99.90;;;;;;4228954;28;20260;-65
2023/01/07 01:16:54;;;;;;;27.67;14.57;;;1.00;99.90;;;;;;4227482;28;20973;-65
2023/01/07 01:18:55;;;;;;;35.23;16.27;;;1.10;99.90;;;;;;4228879;28;20264;-64
2023/01/07 01:21:02;;;;;;;31.20;17.10;;;1.10;99.90;;;;;;4227578;28;20252;-64
2023/01/07 01:23:05;;;;;;;32.40;16.20;;;1.10;99.90;;;;;;4228659;28;20264;-67
2023/01/07 01:25:07;;;;;;;30.97;15.23;;;1.20;99.90;;;;;;4227339;28;20337;-63
2023/01/07 01:27:08;;;;;;;36.50;15.77;;;1.20;99.90;;;;;;4226458;28;20310;-63
2023/01/07 01:29:09;;;;;;;30.67;15.17;;;1.20;99.90;;;;;;4227713;28;20271;-64
2023/01/07 01:31:11;;;;;;;32.80;15.63;;;1.10;99.90;;;;;;4227308;28;20276;-64
2023/01/07 01:33:12;;;;;;;31.43;15.40;;;1.10;99.90;;;;;;4228054;28;20781;-65
2023/01/07 01:35:13;;;;;;;31.30;14.73;;;1.10;99.90;;;;;;4227336;28;20313;-65
2023/01/07 01:37:14;;;;;;;30.60;15.00;;;1.00;99.90;;;;;;4228114;28;20873;-63
2023/01/07 01:39:15;;;;;;;29.67;15.37;;;0.90;99.90;;;;;;4227385;28;20340;-64
2023/01/07 01:41:16;;;;;;;35.07;15.97;;;0.90;99.90;;;;;;4228365;28;20310;-63
2023/01/07 01:43:34;;;;;;;29.10;14.83;;;0.80;99.90;;;;;;4227341;28;20268;-64
2023/01/07 01:45:35;;;;;;;39.93;16.37;;;0.80;99.90;;;;;;4227346;28;20699;-63
2023/01/07 01:47:45;;;;;;;33.80;15.67;;;0.70;99.90;;;;;;4227250;28;20271;-66
2023/01/07 01:50:13;;;;;;;34.65;17.13;;;0.70;99.90;;;;;;4226694;28;20280;-63
2023/01/07 01:52:20;;;;;;;30.83;15.43;;;0.70;99.90;;;;;;4226770;28;20044;-62
2023/01/07 01:54:22;;;;;;;31.27;15.37;;;0.60;99.90;;;;;;4228248;28;20256;-63
2023/01/07 01:56:31;;;;;;;26.17;13.93;;;0.60;99.90;;;;;;4227195;28;20264;-64
2023/01/07 01:58:59;;;;;;;30.63;16.43;;;0.60;99.90;;;;;;4227960;28;20295;-64
2023/01/07 02:01:00;;;;;;;38.27;18.53;;;0.60;99.90;;;;;;4226366;28;20275;-65
2023/01/07 02:03:01;;;;;;;40.00;17.60;;;0.60;99.90;;;;;;4228062;28;20302;-63
2023/01/07 02:05:04;;;;;;;35.23;18.00;;;0.60;99.90;;;;;;4227102;28;20321;-63
2023/01/07 02:07:08;;;;;;;41.57;18.40;;;0.60;99.90;;;;;;4228376;28;20272;-66
2023/01/07 02:09:12;;;;;;;35.67;17.53;;;0.70;99.90;;;;;;4226720;28;20276;-63
2023/01/07 02:11:43;;;;;;;38.50;17.77;;;0.70;99.90;;;;;;4228175;28;20309;-65
2023/01/07 02:13:59;;;;;;;31.38;16.00;;;0.80;99.90;;;;;;4219316;28;20280;-63
2023/01/07 02:16:09;;;;;;;34.30;16.27;;;0.90;99.90;;;;;;4228221;28;20047;-62
2023/01/07 02:18:19;;;;;;;30.70;15.23;;;1.00;99.90;;;;;;4227362;28;20287;-63
2023/01/07 02:20:38;;;;;;;35.47;17.20;;;1.10;99.90;;;;;;4231244;28;20295;-63
2023/01/07 02:22:45;;;;;;;31.40;16.83;;;1.10;99.90;;;;;;4213558;28;20024;-62
2023/01/07 02:24:59;;;;;;;43.23;21.27;;;1.10;99.90;;;;;;4214576;28;20264;-64
2023/01/07 02:27:20;;;;;;;41.20;19.87;;;1.20;99.90;;;;;;4213406;28;20253;-66
2023/01/07 02:30:04;;;;;;;34.10;17.20;;;1.10;99.90;;;;;;4214171;28;20264;-63
2023/01/07 02:32:08;;;;;;;34.90;18.07;;;1.20;99.90;;;;;;4194503;28;20310;-66
2023/01/07 02:34:15;;;;;;;38.43;17.70;;;1.20;99.90;;;;;;4213505;28;20272;-63
2023/01/07 02:36:39;;;;;;;35.70;17.93;;;1.20;99.90;;;;;;4214043;28;20264;-64
2023/01/07 02:39:10;;;;;;;38.57;17.57;;;1.30;99.90;;;;;;4213141;28;20621;-63
2023/01/07 02:41:14;;;;;;;;;;;1.30;99.90;;;;;;4214473;28;20269;-65
2023/01/07 02:43:32;;;;;;;33.27;16.33;;;1.30;99.90;;;;;;4229727;28;19938;-65
2023/01/07 02:45:43;;;;;;;37.10;18.87;;;1.30;99.90;;;;;;4231513;28;20264;-62
2023/01/07 02:47:53;;;;;;;35.65;18.02;;;1.30;99.90;;;;;;4230060;28;20264;-65
2023/01/07 02:49:54;;;;;;;30.43;16.17;;;1.30;99.90;;;;;;4231177;28;20053;-63
2023/01/07 02:51:55;;;;;;;30.13;15.63;;;1.40;99.90;;;;;;4229702;28;20301;-67
2023/01/07 02:53:56;;;;;;;30.30;15.17;;;1.30;99.90;;;;;;4230804;28;20763;-62
2023/01/07 02:55:57;;;;;;;29.93;15.70;;;1.30;99.90;;;;;;4229762;28;20268;-62
2023/01/07 02:58:17;;;;;;;35.30;16.87;;;1.30;99.90;;;;;;4230655;28;20767;-64
2023/01/07 03:00:50;;;;;;;31.13;16.30;;;1.30;99.90;;;;;;4229724;28;20252;-65
2023/01/07 03:03:23;;;;;;;31.03;15.80;;;1.30;99.90;;;;;;4229490;28;20272;-63
2023/01/07 03:05:46;;;;;;;30.00;14.73;;;1.40;99.90;;;;;;4229020;28;20693;-63
2023/01/07 03:08:10;;;;;;;40.07;17.20;;;1.40;99.90;;;;;;4229222;28;20280;-62
2023/01/07 03:10:27;;;;;;;35.00;16.67;;;1.40;99.90;;;;;;4229597;28;20317;-63
2023/01/07 03:12:28;;;;;;;28.03;14.97;;;1.40;99.90;;;;;;4230148;28;20605;-66
2023/01/07 03:14:40;;;;;;;27.47;14.73;;;1.40;99.90;;;;;;4229176;28;20689;-64
2023/01/07 03:16:48;;;;;;;28.00;13.53;;;1.30;99.90;;;;;;4230818;28;20301;-63
2023/01/07 03:19:16;;;;;;;31.13;14.73;;;1.20;99.90;;;;;;4229402;28;20344;-64
2023/01/07 03:21:20;;;;;;;34.40;17.37;;;1.20;99.90;;;;;;4224163;28;20283;-63
2023/01/07 03:23:24;;;;;;;36.00;18.10;;;1.10;99.90;;;;;;4229566;28;20664;-64
2023/01/07 03:25:29;;;;;;;38.07;18.73;;;1.10;99.90;;;;;;4230229;28;20267;-63
2023/01/07 03:27:33;;;;;;;43.57;17.80;;;1.00;99.90;;;;;;4229409;28;20297;-62
2023/01/07 03:29:35;;;;;;;35.73;16.67;;;1.00;99.90;;;;;;4229902;28;20313;-62
2023/01/07 03:31:45;;;;;;;35.03;16.93;;;1.10;99.90;;;;;;4228836;28;20314;-63
2023/01/07 03:34:07;;;;;;;31.83;15.07;;;1.10;99.90;;;;;;4230388;28;20268;-63
2023/01/07 03:36:11;;;;;;;29.63;15.90;;;1.10;99.90;;;;;;4229368;28;20100;-64
2023/01/07 03:38:14;;;;;;;30.57;16.47;;;1.10;99.90;;;;;;4230014;28;20373;-63
2023/01/07 03:40:17;;;;;;;28.47;15.67;;;1.10;99.90;;;;;;4228966;28;20284;-63
2023/01/07 03:42:38;;;;;;;28.10;14.77;;;1.10;99.90;;;;;;4230207;28;20260;-64
2023/01/07 03:44:40;;;;;;;30.70;15.67;;;1.10;99.90;;;;;;4228780;28;20276;-64
2023/01/07 03:46:42;;;;;;;34.20;15.90;;;1.10;99.90;;;;;;4230523;28;20325;-63
2023/01/07 03:48:43;;;;;;;29.57;14.60;;;1.10;99.90;;;;;;4229060;28;20329;-64
2023/01/07 03:50:44;;;;;;;32.03;16.33;;;1.10;99.90;;;;;;4229964;28;20283;-62
2023/01/07 03:52:47;;;;;;;31.90;15.83;;;1.10;99.90;;;;;;4228754;28;20616;-62
2023/01/07 03:54:48;;;;;;;28.43;15.57;;;1.10;99.90;;;;;;4229605;28;20284;-64
2023/01/07 03:56:49;;;;;;;25.80;15.13;;;1.10;99.90;;;;;;4228524;28;20268;-63
2023/01/07 03:58:50;;;;;;;27.90;13.83;;;1.10;99.90;;;;;;4229995;28;20375;-62
2023/01/07 04:00:54;;;;;;;29.03;14.60;;;1.10;99.90;;;;;;4228668;28;20268;-63
2023/01/07 04:02:55;;;;;;;26.43;13.97;;;1.20;99.90;;;;;;4229229;28;20349;-65
2023/01/07 04:04:56;;;;;;;26.10;13.83;;;1.20;99.90;;;;;;4228087;28;20306;-63
2023/01/07 04:06:57;;;;;;;25.37;14.20;;;1.10;99.90;;;;;;4228700;28;20313;-62
2023/01/07 04:08:58;;;;;;;26.57;14.07;;;1.20;99.90;;;;;;4229209;28;20329;-62
2023/01/07 04:10:59;;;;;;;25.87;12.80;;;1.20;99.90;;;;;;4228200;28;20268;-62
2023/01/07 04:13:00;;;;;;;21.57;11.30;;;1.10;99.90;;;;;;4228043;28;20383;-64
2023/01/07 04:15:03;;;;;;;26.47;13.23;;;1.00;99.90;;;;;;4228454;28;20751;-62
2023/01/07 04:17:04;;;;;;;21.60;11.70;;;1.00;99.90;;;;;;4229326;28;20279;-62
2023/01/07 04:19:05;;;;;;;22.17;12.10;;;1.00;99.90;;;;;;4228478;28;20288;-61
2023/01/07 04:21:06;;;;;;;24.73;12.73;;;0.90;99.90;;;;;;4229489;28;20272;-63
2023/01/07 04:23:07;;;;;;;24.50;12.13;;;0.90;99.90;;;;;;4228458;28;20264;-62
2023/01/07 04:25:09;;;;;;;26.50;13.23;;;0.90;99.90;;;;;;4229653;28;20256;-62
2023/01/07 04:27:10;;;;;;;29.60;13.67;;;0.90;99.90;;;;;;4228275;28;20268;-62
2023/01/07 04:29:11;;;;;;;23.63;13.77;;;0.90;99.90;;;;;;4229551;28;20297;-62
2023/01/07 04:31:12;;;;;;;23.07;12.70;;;0.90;99.90;;;;;;4227572;28;20341;-61
2023/01/07 04:33:13;;;;;;;31.63;15.20;;;0.80;99.90;;;;;;4229244;28;20318;-65
2023/01/07 04:35:14;;;;;;;30.23;14.90;;;0.80;99.90;;;;;;4228295;28;20307;-63
2023/01/07 04:37:16;;;;;;;30.70;17.23;;;0.80;99.90;;;;;;4228899;28;20735;-62
2023/01/07 04:39:17;;;;;;;34.40;16.73;;;0.80;99.90;;;;;;4236870;27;20299;-62
2023/01/07 04:41:18;;;;;;;36.60;18.43;;;0.80;99.90;;;;;;4244828;27;20283;-63
2023/01/07 04:43:19;;;;;;;39.57;21.40;;;0.90;99.90;;;;;;4245268;27;20268;-64
2023/01/07 04:45:20;;;;;;;37.97;20.80;;;0.80;99.90;;;;;;4244969;27;20255;-64
2023/01/07 04:47:21;;;;;;;39.47;21.73;;;0.90;99.90;;;;;;4246086;27;20851;-65
2023/01/07 04:49:22;;;;;;;38.53;22.40;;;0.80;99.90;;;;;;4244949;27;20260;-62
2023/01/07 04:51:23;;;;;;;44.00;23.27;;;0.90;99.90;;;;;;4246114;27;20783;-64
2023/01/07 04:53:25;;;;;;;46.00;23.90;;;0.90;99.90;;;;;;4244628;27;20315;-65
2023/01/07 04:55:26;;;;;;;47.10;24.33;;;0.90;99.90;;;;;;4245761;27;20812;-63
2023/01/07 04:57:27;;;;;;;43.27;23.10;;;0.90;99.90;;;;;;4244861;27;20739;-62
2023/01/07 04:59:28;;;;;;;40.90;23.73;;;0.90;99.90;;;;;;4245811;27;20295;-62
2023/01/07 05:01:31;;;;;;;42.10;23.07;;;0.90;99.90;;;;;;4244736;27;20264;-62
2023/01/07 05:03:35;;;;;;;42.60;23.00;;;0.90;99.90;;;;;;4245820;27;20275;-61
2023/01/07 05:05:36;;;;;;;39.93;21.13;;;0.90;99.90;;;;;;4244699;27;20248;-62
2023/01/07 05:07:37;;;;;;;42.33;23.00;;;0.90;99.90;;;;;;4238330;27;20272;-65
2023/01/07 05:09:39;;;;;;;44.53;24.23;;;0.90;99.90;;;;;;4227062;28;20661;-61
2023/01/07 05:11:40;;;;;;;40.63;22.13;;;0.90;99.90;;;;;;4228115;28;20264;-65
2023/01/07 05:13:41;;;;;;;39.73;22.93;;;0.90;99.90;;;;;;4228200;28;20721;-62
2023/01/07 05:15:42;;;;;;;36.67;21.10;;;0.90;99.90;;;;;;4227619;28;20313;-62
2023/01/07 05:17:45;;;;;;;39.03;20.83;;;0.90;99.90;;;;;;4228305;28;20352;-62
2023/01/07 05:19:46;;;;;;;41.60;19.67;;;0.80;99.90;;;;;;4227417;28;20256;-62
2023/01/07 05:21:47;;;;;;;42.40;21.13;;;0.80;99.90;;;;;;4228107;28;20438;-62
2023/01/07 05:23:48;;;;;;;37.47;20.77;;;0.80;99.90;;;;;;4227211;28;20697;-62
2023/01/07 05:25:49;;;;;;;42.23;21.17;;;0.80;99.90;;;;;;4228590;28;20826;-62
2023/01/07 05:27:50;;;;;;;39.60;20.37;;;0.80;99.90;;;;;;4227587;28;20305;-64
2023/01/07 05:29:51;;;;;;;36.57;18.53;;;0.80;99.90;;;;;;4228268;28;20268;-62
2023/01/07 05:31:52;;;;;;;33.63;16.83;;;0.70;99.90;;;;;;4227460;28;20268;-63
2023/01/07 05:33:53;;;;;;;34.87;18.47;;;0.70;99.90;;;;;;4228418;28;20268;-62
2023/01/07 05:35:54;;;;;;;34.33;17.93;;;0.60;99.90;;;;;;4227130;28;20268;-62
2023/01/07 05:37:56;;;;;;;33.43;17.83;;;0.70;99.90;;;;;;4228125;28;20333;-63
2023/01/07 05:39:57;;;;;;;32.93;17.73;;;0.70;99.90;;;;;;4227323;28;20766;-61
2023/01/07 05:41:58;;;;;;;37.47;18.73;;;0.80;99.90;;;;;;4227649;28;20325;-62
2023/01/07 05:43:59;;;;;;;34.30;16.87;;;0.80;99.90;;;;;;4227852;28;20333;-65
2023/01/07 05:46:01;;;;;;;32.97;16.73;;;0.80;99.90;;;;;;4227638;28;20820;-63
2023/01/07 05:48:02;;;;;;;28.23;16.37;;;0.80;99.90;;;;;;4228171;28;20650;-63
2023/01/07 05:50:03;;;;;;;31.57;17.43;;;0.90;99.90;;;;;;4227044;28;20634;-63
2023/01/07 05:52:04;;;;;;;27.63;15.93;;;0.90;99.90;;;;;;4228252;28;20276;-62
2023/01/07 05:54:06;;;;;;;31.77;15.80;;;0.90;99.90;;;;;;4226587;28;20316;-63
2023/01/07 05:56:07;;;;;;;28.50;15.67;;;0.90;99.90;;;;;;4227721;28;20302;-61
2023/01/07 05:58:08;;;;;;;31.27;17.20;;;0.90;99.90;;;;;;4226799;28;20369;-62
2023/01/07 06:00:10;;;;;;;27.43;17.13;;;1.00;99.90;;;;;;4227829;28;20276;-63
2023/01/07 06:02:11;;;;;;;35.77;17.37;;;0.90;99.90;;;;;;4210037;28;20294;-63
2023/01/07 06:04:12;;;;;;;43.93;22.10;;;0.90;99.90;;;;;;4211389;28;20257;-62
2023/01/07 06:06:13;;;;;;;29.70;16.57;;;0.90;99.90;;;;;;4210111;28;20260;-63
2023/01/07 06:08:15;;;;;;;31.03;16.60;;;0.90;99.90;;;;;;4209913;28;20314;-64
2023/01/07 06:10:16;;;;;;;27.87;15.97;;;1.00;99.90;;;;;;4225368;28;20329;-64
2023/01/07 06:12:17;;;;;;;26.10;14.20;;;1.00;99.90;;;;;;4227023;28;20336;-63
2023/01/07 06:14:18;;;;;;;29.43;16.13;;;0.90;99.90;;;;;;4227121;28;20301;-63
2023/01/07 06:16:19;;;;;;;28.73;15.47;;;1.00;99.90;;;;;;4227444;28;20297;-67
2023/01/07 06:18:20;;;;;;;31.17;14.93;;;1.10;99.90;;;;;;4227766;28;20284;-63
2023/01/07 06:20:22;;;;;;;28.87;15.33;;;1.00;99.90;;;;;;4226836;28;20252;-63
2023/01/07 06:22:23;;;;;;;27.93;16.37;;;1.00;99.90;;;;;;4228052;28;20265;-63
2023/01/07 06:24:24;;;;;;;27.40;15.47;;;1.10;99.90;;;;;;4226878;28;20665;-63
2023/01/07 06:26:25;;;;;;;28.80;16.77;;;1.10;99.90;;;;;;4227665;28;20280;-64
2023/01/07 06:28:26;;;;;;;33.43;16.53;;;1.10;99.90;;;;;;4226411;28;20268;-63
2023/01/07 06:30:28;;;;;;;26.80;14.93;;;1.10;99.90;;;;;;4227331;28;20272;-66
2023/01/07 06:32:29;;;;;;;28.03;14.73;;;1.10;99.90;;;;;;4226692;28;20374;-62
2023/01/07 06:34:30;;;;;;;29.90;15.70;;;1.20;99.90;;;;;;4227395;28;20738;-62
2023/01/07 06:36:31;;;;;;;29.57;15.37;;;1.20;99.90;;;;;;4226305;28;20735;-66
2023/01/07 06:38:32;;;;;;;32.57;16.83;;;1.10;99.90;;;;;;4227319;28;20292;-68
2023/01/07 06:40:33;;;;;;;35.23;17.37;;;1.20;99.90;;;;;;4226249;28;20280;-62
2023/01/07 06:42:34;;;;;;;29.03;16.53;;;1.10;99.90;;;;;;4226989;28;20797;-67
2023/01/07 06:44:35;;;;;;;26.60;15.80;;;1.10;99.90;;;;;;4226757;28;20263;-63
2023/01/07 06:46:36;;;;;;;29.13;15.73;;;1.10;99.90;;;;;;4226957;28;20322;-65
2023/01/07 06:48:38;;;;;;;32.13;15.33;;;1.10;99.90;;;;;;4227274;28;20318;-62
2023/01/07 06:50:39;;;;;;;29.60;16.70;;;1.10;99.90;;;;;;4226142;28;20279;-63
2023/01/07 06:52:40;;;;;;;33.27;18.07;;;1.10;99.90;;;;;;4227692;28;20285;-65
2023/01/07 06:54:41;;;;;;;30.60;18.33;;;1.10;99.90;;;;;;4226615;28;20697;-66
2023/01/07 06:56:42;;;;;;;38.00;20.07;;;1.20;99.90;;;;;;4227804;28;20260;-64
2023/01/07 06:58:43;;;;;;;37.03;18.63;;;1.10;99.90;;;;;;4226422;28;20353;-65
2023/01/07 07:00:44;;;;;;;34.73;18.90;;;1.10;99.90;;;;;;4226968;28;20260;-62
2023/01/07 07:02:46;;;;;;;34.07;18.87;;;1.20;99.90;;;;;;4226352;28;20352;-61
2023/01/07 07:04:47;;;;;;;33.10;17.93;;;1.20;99.90;;;;;;4227500;28;20307;-63
2023/01/07 07:06:48;;;;;;;35.83;18.17;;;1.20;99.90;;;;;;4229450;28;20686;-63
2023/01/07 07:08:49;;;;;;;33.83;17.57;;;1.20;99.90;;;;;;4230637;28;20328;-63
2023/01/07 07:10:50;;;;;;;35.50;18.17;;;1.30;99.90;;;;;;4229845;28;20741;-63
2023/01/07 07:12:52;;;;;;;30.40;15.77;;;1.30;99.90;;;;;;4230188;28;20256;-64
2023/01/07 07:14:53;;;;;;;31.37;17.30;;;1.30;99.90;;;;;;4228071;28;20272;-62
2023/01/07 07:16:54;;;;;;;30.97;17.23;;;1.40;99.90;;;;;;4229308;28;20280;-63
2023/01/07 07:18:55;;;;;;;32.70;15.87;;;1.50;99.90;;;;;;4229614;28;20299;-62
2023/01/07 07:20:57;;;;;;;31.60;16.90;;;1.50;99.90;;;;;;4228995;28;20280;-62
2023/01/07 07:22:58;;;;;;;33.83;17.97;;;1.50;99.90;;;;;;4230197;28;20721;-65
2023/01/07 07:24:59;;;;;;;33.57;17.00;;;1.50;99.90;;;;;;4228354;28;20322;-63
2023/01/07 07:27:01;;;;;;;31.07;17.03;;;1.50;99.90;;;;;;4229397;28;20328;-62
2023/01/07 07:29:02;;;;;;;27.73;16.33;;;1.60;99.90;;;;;;4228433;28;20260;-62
2023/01/07 07:31:03;;;;;;;27.30;14.90;;;1.60;99.90;;;;;;4229957;28;20333;-62
2023/01/07 07:33:04;;;;;;;26.33;15.03;;;1.60;99.90;;;;;;4228622;28;20317;-62
2023/01/07 07:35:06;;;;;;;27.43;16.00;;;1.60;99.90;;;;;;4228649;28;20341;-62
2023/01/07 07:37:07;;;;;;;30.17;15.43;;;1.60;99.90;;;;;;4226764;27;20317;-63
2023/01/07 07:39:10;;;;;;;29.33;15.70;;;1.60;99.90;;;;;;4229119;28;20291;-63
2023/01/07 07:41:11;;;;;;;32.57;16.37;;;1.50;99.90;;;;;;4228120;28;20310;-62
2023/01/07 07:43:13;;;;;;;32.47;17.27;;;1.50;99.90;;;;;;4229154;28;20252;-63
2023/01/07 07:45:15;;;;;;;30.30;16.17;;;1.50;99.90;;;;;;4228912;28;20272;-65
2023/01/07 07:47:16;;;;;;;35.77;17.77;;;1.60;99.90;;;;;;4229364;28;20301;-67
2023/01/07 07:49:17;;;;;;;37.60;18.57;;;1.50;99.90;;;;;;4229511;28;20872;-61
2023/01/07 07:51:19;;;;;;;31.67;18.77;;;1.60;99.90;;;;;;4228667;28;20252;-64
2023/01/07 07:53:20;;;;;;;36.17;18.10;;;1.60;99.90;;;;;;4229506;28;20317;-66
2023/01/07 07:55:22;;;;;;;35.23;19.53;;;1.60;99.90;;;;;;4228163;28;20264;-63
2023/01/07 07:57:23;;;;;;;31.37;18.47;;;1.60;99.90;;;;;;4229699;28;20422;-64
2023/01/07 07:59:24;;;;;;;27.63;16.67;;;1.60;99.90;;;;;;4228015;28;20353;-61
2023/01/07 08:01:25;;;;;;;33.77;17.53;;;1.60;99.90;;;;;;4229357;28;20268;-63
2023/01/07 08:03:27;;;;;;;31.17;15.47;;;1.60;99.90;;;;;;4228351;28;20337;-67
2023/01/07 08:05:28;;;;;;;30.43;14.90;;;1.60;99.90;;;;;;4229014;28;20763;-66
2023/01/07 08:07:29;;;;;;;26.20;15.13;;;1.70;99.90;;;;;;4227982;28;20302;-66
2023/01/07 08:09:31;;;;;;;26.43;15.17;;;1.60;99.90;;;;;;4228736;28;20291;-66
2023/01/07 08:11:32;;;;;;;23.20;13.93;;;1.60;99.90;;;;;;4227915;28;20731;-67
2023/01/07 08:13:33;;;;;;;27.53;15.30;;;1.60;99.90;;;;;;4229089;28;20297;-67
2023/01/07 08:15:35;;;;;;;32.90;18.30;;;1.60;99.90;;;;;;4228496;28;20728;-62
2023/01/07 08:17:36;;;;;;;33.40;17.83;;;1.60;99.90;;;;;;4228907;28;20264;-65
2023/01/07 08:19:37;;;;;;;31.90;16.23;;;1.60;99.90;;;;;;4228413;28;20689;-66
2023/01/07 08:21:38;;;;;;;32.67;16.87;;;1.50;99.90;;;;;;4228788;28;20272;-65
2023/01/07 08:23:39;;;;;;;35.40;17.70;;;1.60;99.90;;;;;;4229190;28;20256;-65
2023/01/07 08:25:40;;;;;;;32.53;18.23;;;1.60;99.90;;;;;;4228363;28;20317;-65
2023/01/07 08:27:41;;;;;;;29.83;17.73;;;1.60;99.90;;;;;;4228800;28;21124;-66
2023/01/07 08:29:43;;;;;;;31.00;16.57;;;1.60;99.90;;;;;;4227316;28;20317;-66
2023/01/07 08:31:44;;;;;;;33.83;16.63;;;1.60;99.90;;;;;;4228981;28;20264;-66
2023/01/07 08:33:45;;;;;;;27.97;16.70;;;1.60;99.90;;;;;;4228203;28;20325;-66
2023/01/07 08:35:46;;;;;;;29.67;16.47;;;1.60;99.90;;;;;;4229156;28;20337;-66
2023/01/07 08:37:48;;;;;;;31.83;16.60;;;1.70;99.90;;;;;;4227752;28;20276;-66
2023/01/07 08:39:49;;;;;;;24.80;15.50;;;1.70;99.90;;;;;;4229126;28;20295;-66
2023/01/07 08:41:50;;;;;;;25.27;15.53;;;1.70;99.90;;;;;;4228207;28;20264;-65
2023/01/07 08:43:52;;;;;;;30.87;16.63;;;1.70;99.90;;;;;;4228690;28;20592;-65
2023/01/07 08:45:54;;;;;;;35.53;16.97;;;1.70;99.90;;;;;;4227826;28;20316;-64
2023/01/07 08:47:56;;;;;;;30.27;16.00;;;1.80;99.90;;;;;;4228559;28;20276;-65
2023/01/07 08:49:57;;;;;;;23.00;13.70;;;1.80;99.90;;;;;;4228456;28;20646;-64
2023/01/07 08:51:58;;;;;;;30.33;16.13;;;1.80;99.90;;;;;;4227876;28;20260;-70
2023/01/07 08:53:59;;;;;;;24.73;13.77;;;1.90;99.90;;;;;;4228658;28;20264;-66
2023/01/07 08:56:00;;;;;;;25.13;12.73;;;1.90;99.90;;;;;;4225992;28;20279;-67
2023/01/07 08:58:02;;;;;;;21.47;13.23;;;1.90;99.90;;;;;;4228647;28;20337;-66
2023/01/07 09:00:03;;;;;;;24.50;13.33;;;2.00;99.90;;;;;;4227568;28;20341;-69
2023/01/07 09:02:23;;;;;;;21.03;13.10;;;2.00;99.90;;;;;;4229326;28;20324;-64
2023/01/07 09:04:24;;;;;;;20.10;12.27;;;2.10;99.90;;;;;;4228380;28;20272;-72
2023/01/07 09:06:25;;;;;;;22.20;12.43;;;2.10;99.90;;;;;;4228487;28;20337;-67
2023/01/07 09:08:26;;;;;;;23.37;12.33;;;2.10;99.90;;;;;;4227588;28;20260;-72
2023/01/07 09:10:27;;;;;;;18.13;10.53;;;2.20;99.90;;;;;;4226793;28;20297;-75
2023/01/07 09:12:29;;;;;;;16.00;10.37;;;2.20;99.90;;;;;;4227312;28;20317;-69
2023/01/07 09:14:30;;;;;;;17.00;11.00;;;2.20;99.90;;;;;;4228369;28;20343;-69
2023/01/07 09:16:31;;;;;;;25.13;10.87;;;2.30;99.90;;;;;;4227798;28;20309;-68
2023/01/07 09:18:33;;;;;;;19.87;11.70;;;2.30;99.90;;;;;;4226893;28;20325;-71
2023/01/07 09:20:34;;;;;;;17.77;10.63;;;2.50;99.90;;;;;;4227427;28;20763;-67
2023/01/07 09:22:36;;;;;;;16.17;9.17;;;2.60;99.90;;;;;;4227115;28;20832;-68
2023/01/07 09:24:37;;;;;;;17.97;9.60;;;2.60;99.90;;;;;;4227510;28;20240;-70
2023/01/07 09:26:38;;;;;;;18.90;10.60;;;2.50;99.90;;;;;;4225882;28;20298;-67
2023/01/07 09:28:39;;;;;;;21.13;9.90;;;2.50;99.90;;;;;;4227049;28;20284;-69
2023/01/07 09:30:41;;;;;;;21.77;11.33;;;2.50;99.90;;;;;;4225873;28;20317;-66
2023/01/07 09:32:43;;;;;;;16.30;10.20;;;2.50;99.90;;;;;;4228103;28;20764;-67
2023/01/07 09:34:44;;;;;;;15.40;8.67;;;2.50;99.90;;;;;;4226273;28;20333;-67
2023/01/07 09:36:45;;;;;;;18.33;10.10;;;2.50;99.90;;;;;;4228183;28;20309;-71
2023/01/07 09:38:46;;;;;;;14.90;8.93;;;2.40;99.90;;;;;;4225001;28;20272;-68
2023/01/07 09:40:48;;;;;;;14.43;8.70;;;2.50;99.90;;;;;;4228154;28;20755;-69
2023/01/07 09:42:56;;;;;;;14.63;9.27;;;2.50;99.90;;;;;;4226887;28;20321;-69
2023/01/07 09:45:12;;;;;;;16.77;9.77;;;2.50;99.90;;;;;;4227597;28;20343;-72
2023/01/07 09:47:18;;;;;;;18.73;10.57;;;2.50;99.90;;;;;;4227420;28;20800;-71
2023/01/07 09:49:19;;;;;;;18.80;10.40;;;2.40;99.90;;;;;;4228169;28;20788;-72
2023/01/07 09:51:27;;;;;;;18.00;10.80;;;2.50;99.90;;;;;;4226569;28;20373;-69
2023/01/07 09:53:28;;;;;;;19.73;10.47;;;2.50;99.90;;;;;;4227744;28;20268;-64
2023/01/07 09:55:37;;;;;;;21.73;10.47;;;2.50;99.90;;;;;;4226646;28;20252;-69
2023/01/07 09:57:39;;;;;;;17.07;10.53;;;2.50;99.90;;;;;;4227803;28;20252;-65
2023/01/07 09:59:40;;;;;;;17.60;10.07;;;2.60;99.90;;;;;;4219959;28;20318;-71
2023/01/07 10:01:53;;;;;;;21.23;10.57;;;2.60;99.90;;;;;;4210267;28;20273;-66
2023/01/07 10:04:12;;;;;;;16.60;10.47;;;2.60;99.90;;;;;;4210152;28;20241;-68
2023/01/07 10:06:34;;;;;;;22.57;12.10;;;2.60;99.90;;;;;;4210660;28;20310;-66
2023/01/07 10:08:38;;;;;;;22.03;12.53;;;2.70;99.90;;;;;;4209820;28;20817;-66
2023/01/07 10:10:58;;;;;;;21.33;11.97;;;2.70;99.90;;;;;;4218163;28;20340;-63
2023/01/07 10:13:05;;;;;;;26.77;13.27;;;2.70;99.90;;;;;;4216218;28;20288;-66
2023/01/07 10:15:42;;;;;;;19.87;11.50;;;2.70;99.90;;;;;;4228073;28;20089;-63
2023/01/07 10:17:52;;;;;;;18.43;10.87;;;2.70;99.90;;;;;;4226793;28;20284;-62
2023/01/07 10:20:00;;;;;;;23.77;14.10;;;2.70;99.90;;;;;;4227973;28;20296;-64
2023/01/07 10:22:09;;;;;;;22.17;12.53;;;2.70;99.90;;;;;;4226620;27;20061;-63
2023/01/07 10:24:18;;;;;;;23.00;14.27;;;2.70;99.90;;;;;;4227894;28;20268;-67
2023/01/07 10:26:31;;;;;;;23.23;13.63;;;2.80;99.90;;;;;;4224469;28;20329;-64
2023/01/07 10:28:52;;;;;;;23.23;13.10;;;2.80;99.90;;;;;;4227655;27;20271;-65
2023/01/07 10:30:53;;;;;;;23.20;13.20;;;2.80;99.90;;;;;;4225804;28;20349;-64
2023/01/07 10:33:14;;;;;;;27.87;15.20;;;2.90;99.90;;;;;;4227428;28;20275;-62
2023/01/07 10:35:19;;;;;;;;;;;2.90;99.90;;;;;;4227019;28;20348;-65
2023/01/07 10:37:36;;;;;;;20.37;12.67;;;3.00;99.90;;;;;;4227053;28;19908;-63
2023/01/07 10:39:51;;;;;;;21.33;12.73;;;3.00;99.90;;;;;;4226382;28;20713;-63
2023/01/07 10:42:08;;;;;;;23.90;13.00;;;3.00;99.90;;;;;;4230248;28;20272;-62